Time;durP1;ratioP1;P1;durP2;ratioP2;P2;SDS_P1;SDS_P2;PMS_P1;PMS_P2;Temp;Humidity;BMP_temperature;BMP_pressure;BME280_temperature;BME280_humidity;BME280_pressure;Samples;Min_cycle;Max_cycle;Signal;HPM_P1;HPM_P2
2023/03/19 00:10:27;;;;;;;14.63;6.67;;;;;;;;;;4928265;29;20200;-88
2023/03/19 00:44:22;;;;;;;10.80;6.57;;;;;;;;;;4915707;29;20197;-88
2023/03/19 01:59:50;;;;;;;11.93;8.23;;;;;;;;;;4918732;29;20212;-87
2023/03/19 03:26:29;;;;;;;11.30;7.20;;;;;;;;;;4972408;28;20211;-87
2023/03/19 03:36:05;;;;;;;10.33;7.33;;;;;;;;;;4973347;28;20234;-88
2023/03/19 03:40:36;;;;;;;14.17;7.50;;;;;;;;;;4910466;29;20201;-88
2023/03/19 03:45:55;;;;;;;13.40;7.13;;;;;;;;;;4915147;29;20225;-88
2023/03/19 04:20:17;;;;;;;13.13;7.90;;;;;;;;;;4984096;28;20186;-88
2023/03/19 04:23:23;;;;;;;11.00;7.97;;;;;;;;;;4973943;28;20194;-86
2023/03/19 04:26:26;;;;;;;13.70;7.80;;;;;;;;;;4985265;28;20182;-86
2023/03/19 04:29:31;;;;;;;12.73;7.63;;;;;;;;;;4985100;28;20529;-86
2023/03/19 04:32:36;;;;;;;11.37;6.60;;;;;;;;;;4962838;28;20198;-86
2023/03/19 04:35:41;;;;;;;12.73;7.93;;;;;;;;;;4984724;28;20226;-86
2023/03/19 04:38:45;;;;;;;10.70;7.47;;;;;;;;;;4973562;28;20662;-86
2023/03/19 04:41:50;;;;;;;12.80;7.20;;;;;;;;;;4973712;28;20174;-86
2023/03/19 04:45:10;;;;;;;15.30;7.67;;;;;;;;;;4975711;28;20218;-86
2023/03/19 04:48:14;;;;;;;11.47;7.77;;;;;;;;;;4984384;28;20210;-86
2023/03/19 04:51:20;;;;;;;12.53;7.53;;;;;;;;;;4973812;28;20178;-88
2023/03/19 04:54:24;;;;;;;11.07;7.30;;;;;;;;;;4984647;28;20292;-88
2023/03/19 04:57:28;;;;;;;18.27;8.00;;;;;;;;;;4996047;28;20542;-88
2023/03/19 05:00:34;;;;;;;11.90;8.23;;;;;;;;;;4973405;28;20202;-88
2023/03/19 05:03:38;;;;;;;14.80;8.00;;;;;;;;;;4973823;28;20214;-88
2023/03/19 05:06:42;;;;;;;11.63;7.37;;;;;;;;;;4973632;28;20178;-86
2023/03/19 05:09:46;;;;;;;11.07;7.53;;;;;;;;;;4973236;28;20174;-86
2023/03/19 05:12:52;;;;;;;11.33;7.60;;;;;;;;;;4984418;28;20201;-88
2023/03/19 05:15:57;;;;;;;12.23;7.90;;;;;;;;;;4973217;28;20214;-88
2023/03/19 05:19:01;;;;;;;10.43;6.80;;;;;;;;;;4984373;28;20183;-88
2023/03/19 05:22:08;;;;;;;11.07;7.20;;;;;;;;;;4984248;28;20194;-87
2023/03/19 05:25:12;;;;;;;11.47;7.07;;;;;;;;;;4983989;28;20217;-86
2023/03/19 05:28:18;;;;;;;15.70;8.03;;;;;;;;;;4995419;28;20182;-87
2023/03/19 05:31:22;;;;;;;12.07;7.63;;;;;;;;;;4995464;28;20186;-87
2023/03/19 05:34:30;;;;;;;13.03;7.73;;;;;;;;;;4983811;28;20587;-88
2023/03/19 05:37:35;;;;;;;13.57;7.27;;;;;;;;;;4962393;28;20186;-87
2023/03/19 05:40:41;;;;;;;13.43;7.83;;;;;;;;;;4962237;28;20178;-87
2023/03/19 05:43:57;;;;;;;10.67;7.30;;;;;;;;;;4974451;28;20222;-88
2023/03/19 05:47:16;;;;;;;10.67;7.43;;;;;;;;;;4983517;28;20210;-87
2023/03/19 05:50:27;;;;;;;10.83;7.93;;;;;;;;;;4983000;28;20190;-87
2023/03/19 05:53:50;;;;;;;14.53;8.07;;;;;;;;;;4975627;28;20222;-87
2023/03/19 05:57:12;;;;;;;11.10;7.63;;;;;;;;;;4994748;28;20544;-87
2023/03/19 06:00:31;;;;;;;12.23;8.17;;;;;;;;;;4966443;28;20199;-87
2023/03/19 06:03:36;;;;;;;13.77;8.03;;;;;;;;;;4964112;28;20218;-87
2023/03/19 06:06:44;;;;;;;12.47;8.43;;;;;;;;;;4964268;28;20183;-87
2023/03/19 06:09:48;;;;;;;14.33;8.57;;;;;;;;;;4964674;28;20179;-87
2023/03/19 06:12:52;;;;;;;13.10;8.90;;;;;;;;;;4944573;28;20191;-87
2023/03/19 06:16:18;;;;;;;15.20;10.93;;;;;;;;;;4963924;28;20219;-87
2023/03/19 06:20:24;;;;;;;13.80;10.30;;;;;;;;;;4953883;28;20184;-87
2023/03/19 06:30:40;;;;;;;15.90;10.83;;;;;;;;;;4954281;29;20208;-87
2023/03/19 06:35:33;;;;;;;29.23;19.70;;;;;;;;;;4954146;28;20218;-86
2023/03/19 06:53:42;;;;;;;14.97;10.07;;;;;;;;;;4978228;28;20214;-88
2023/03/19 06:56:47;;;;;;;17.47;11.07;;;;;;;;;;4952074;28;20179;-89
2023/03/19 07:00:30;;;;;;;41.73;23.90;;;;;;;;;;4936164;28;20269;-89
2023/03/19 07:03:35;;;;;;;49.00;27.67;;;;;;;;;;4952974;28;20215;-89
2023/03/19 07:06:46;;;;;;;107.80;55.70;;;;;;;;;;4952459;28;20533;-89
2023/03/19 07:09:53;;;;;;;24.73;16.80;;;;;;;;;;4963410;28;20186;-89
2023/03/19 07:12:57;;;;;;;19.57;12.50;;;;;;;;;;4952432;28;20632;-89
2023/03/19 07:16:01;;;;;;;16.57;11.37;;;;;;;;;;4968283;28;20210;-89
2023/03/19 07:19:06;;;;;;;15.23;10.60;;;;;;;;;;4961542;28;20190;-87
2023/03/19 07:22:10;;;;;;;13.53;9.93;;;;;;;;;;4963184;28;20194;-88
2023/03/19 07:25:14;;;;;;;15.90;10.07;;;;;;;;;;4962876;28;20222;-88
2023/03/19 07:28:19;;;;;;;24.30;16.37;;;;;;;;;;4968185;28;20182;-88
2023/03/19 07:31:23;;;;;;;36.60;23.00;;;;;;;;;;4973223;28;20198;-87
2023/03/19 07:34:27;;;;;;;46.13;30.50;;;;;;;;;;4977026;28;20681;-88
2023/03/19 07:37:31;;;;;;;19.07;13.73;;;;;;;;;;4975948;28;20532;-87
2023/03/19 07:40:36;;;;;;;16.87;9.40;;;;;;;;;;4973604;28;20203;-88
2023/03/19 07:43:40;;;;;;;12.47;7.63;;;;;;;;;;4963281;28;20221;-88
2023/03/19 07:46:44;;;;;;;9.97;7.40;;;;;;;;;;4975185;28;20178;-88
2023/03/19 07:49:48;;;;;;;11.53;7.80;;;;;;;;;;4974879;28;20524;-88
2023/03/19 07:52:52;;;;;;;10.20;6.93;;;;;;;;;;4975078;28;20186;-87
2023/03/19 07:55:56;;;;;;;9.60;7.43;;;;;;;;;;4986016;28;20225;-87
2023/03/19 07:59:00;;;;;;;9.50;5.93;;;;;;;;;;4975228;28;20186;-88
2023/03/19 08:02:05;;;;;;;9.80;5.67;;;;;;;;;;4975154;28;20187;-86
2023/03/19 08:05:10;;;;;;;10.47;5.90;;;;;;;;;;4964627;28;20221;-89
2023/03/19 08:08:15;;;;;;;8.53;5.27;;;;;;;;;;4975430;28;20194;-89
2023/03/19 08:11:19;;;;;;;8.30;5.57;;;;;;;;;;4974536;28;20186;-89
2023/03/19 08:14:49;;;;;;;8.27;5.10;;;;;;;;;;4996715;28;20222;-91
2023/03/19 08:18:12;;;;;;;6.53;4.80;;;;;;;;;;4998704;28;20186;-87
2023/03/19 08:21:16;;;;;;;9.73;4.87;;;;;;;;;;4983786;28;20187;-88
2023/03/19 08:24:20;;;;;;;7.10;5.77;;;;;;;;;;4969883;28;20213;-88
2023/03/19 08:27:26;;;;;;;10.93;4.83;;;;;;;;;;4968927;28;20187;-88
2023/03/19 08:30:30;;;;;;;7.73;4.87;;;;;;;;;;4961588;28;20190;-89
2023/03/19 08:33:35;;;;;;;10.93;5.67;;;;;;;;;;4962336;28;20218;-89
2023/03/19 08:36:39;;;;;;;9.67;7.97;;;;;;;;;;4981119;28;20210;-87
2023/03/19 08:39:43;;;;;;;9.77;8.40;;;;;;;;;;4967519;28;20187;-87
2023/03/19 08:42:47;;;;;;;6.13;4.10;;;;;;;;;;4972458;28;20194;-89
2023/03/19 08:45:51;;;;;;;4.90;4.03;;;;;;;;;;4959688;28;20182;-89
2023/03/19 08:48:56;;;;;;;8.17;5.80;;;;;;;;;;4962398;28;20520;-89
2023/03/19 08:52:00;;;;;;;9.47;6.67;;;;;;;;;;4953365;28;20199;-88
2023/03/19 08:55:04;;;;;;;6.77;4.93;;;;;;;;;;4968349;28;20230;-89
2023/03/19 08:58:09;;;;;;;7.53;5.60;;;;;;;;;;4966714;28;20190;-89
2023/03/19 09:01:14;;;;;;;3.37;2.67;;;;;;;;;;4975291;28;20194;-89
2023/03/19 09:04:20;;;;;;;8.77;5.17;;;;;;;;;;4965203;28;20217;-89
2023/03/19 09:07:25;;;;;;;4.93;3.40;;;;;;;;;;4953894;28;20187;-89
2023/03/19 09:10:30;;;;;;;4.67;3.50;;;;;;;;;;4975369;28;20186;-89
2023/03/19 09:13:34;;;;;;;6.20;3.60;;;;;;;;;;4975087;28;20218;-88
2023/03/19 09:16:39;;;;;;;3.57;3.00;;;;;;;;;;4980123;28;20202;-88
2023/03/19 09:19:43;;;;;;;6.07;3.67;;;;;;;;;;4964361;28;20194;-88
2023/03/19 09:22:48;;;;;;;4.03;2.73;;;;;;;;;;4975030;28;20206;-88
2023/03/19 09:25:52;;;;;;;5.10;3.10;;;;;;;;;;4974143;28;20202;-88
2023/03/19 09:28:57;;;;;;;6.60;3.40;;;;;;;;;;4965638;28;20182;-88
2023/03/19 09:32:02;;;;;;;5.50;3.60;;;;;;;;;;4973246;28;20202;-88
2023/03/19 09:35:06;;;;;;;4.03;2.83;;;;;;;;;;4960391;28;20225;-89
2023/03/19 09:38:11;;;;;;;3.80;3.40;;;;;;;;;;4973029;28;20190;-88
2023/03/19 09:41:35;;;;;;;5.03;2.87;;;;;;;;;;4983866;28;20667;-88
2023/03/19 09:44:43;;;;;;;4.30;3.40;;;;;;;;;;4973395;28;20217;-88
2023/03/19 09:47:52;;;;;;;5.50;2.97;;;;;;;;;;4972580;28;20623;-88
2023/03/19 09:50:59;;;;;;;7.60;3.23;;;;;;;;;;4973006;28;20520;-89
2023/03/19 09:54:07;;;;;;;5.67;3.07;;;;;;;;;;4961334;28;20213;-88
2023/03/19 09:57:13;;;;;;;4.07;2.70;;;;;;;;;;4984310;28;20639;-88
2023/03/19 10:00:24;;;;;;;4.50;3.00;;;;;;;;;;4972651;28;20178;-88
2023/03/19 10:03:28;;;;;;;4.83;3.00;;;;;;;;;;4983624;28;20190;-88
2023/03/19 10:06:34;;;;;;;6.63;4.23;;;;;;;;;;4994681;28;20631;-88
2023/03/19 10:10:07;;;;;;;4.30;3.90;;;;;;;;;;4983421;28;20520;-89
2023/03/19 10:13:46;;;;;;;4.83;3.87;;;;;;;;;;4983628;28;20186;-88
2023/03/19 10:16:54;;;;;;;5.93;3.80;;;;;;;;;;4969038;28;20213;-88
2023/03/19 10:20:05;;;;;;;12.43;9.03;;;;;;;;;;4965183;28;20187;-89
2023/03/19 10:23:42;;;;;;;14.40;9.63;;;;;;;;;;4971399;28;20198;-88
2023/03/19 10:26:47;;;;;;;24.57;16.13;;;;;;;;;;4953205;28;20183;-88
2023/03/19 10:29:51;;;;;;;10.87;7.10;;;;;;;;;;4970431;28;20209;-89
2023/03/19 10:33:20;;;;;;;5.83;2.77;;;;;;;;;;4949888;28;20187;-88
2023/03/19 10:36:32;;;;;;;6.97;5.10;;;;;;;;;;4974064;28;20222;-88
2023/03/19 10:39:37;;;;;;;3.53;2.80;;;;;;;;;;4971942;28;20198;-88
2023/03/19 10:43:10;;;;;;;9.07;6.93;;;;;;;;;;4971196;28;20197;-88
2023/03/19 10:46:15;;;;;;;6.43;4.67;;;;;;;;;;4971585;28;20182;-87
2023/03/19 10:49:19;;;;;;;5.03;3.77;;;;;;;;;;4971817;28;20194;-88
2023/03/19 10:52:27;;;;;;;4.43;3.13;;;;;;;;;;4971733;28;20517;-88
2023/03/19 10:55:32;;;;;;;6.57;3.30;;;;;;;;;;4960490;28;20225;-88
2023/03/19 10:58:36;;;;;;;22.57;15.90;;;;;;;;;;4971351;28;20186;-88
2023/03/19 11:01:43;;;;;;;4.93;3.10;;;;;;;;;;4976352;28;20193;-87
2023/03/19 11:05:40;;;;;;;7.23;4.03;;;;;;;;;;4954756;28;20612;-88
2023/03/19 13:21:48;;;;;;;2.20;1.70;;;;;;;;;;4998430;28;20206;-88
2023/03/19 13:34:49;;;;;;;2.50;1.33;;;;;;;;;;4998418;28;20210;-89
2023/03/19 13:43:36;;;;;;;2.33;1.30;;;;;;;;;;4973913;28;20191;-88
2023/03/19 13:57:07;;;;;;;3.57;1.60;;;;;;;;;;4964699;28;20537;-88
2023/03/19 14:00:42;;;;;;;3.50;1.60;;;;;;;;;;4961442;28;20675;-88
2023/03/19 14:04:01;;;;;;;7.97;5.60;;;;;;;;;;4963845;28;20210;-88
2023/03/19 14:07:12;;;;;;;3.27;1.90;;;;;;;;;;4963833;28;20179;-88
2023/03/19 14:10:24;;;;;;;4.07;2.07;;;;;;;;;;4952696;28;20183;-88
2023/03/19 14:13:46;;;;;;;5.97;1.73;;;;;;;;;;4952747;28;20183;-88
2023/03/19 14:16:52;;;;;;;5.33;2.27;;;;;;;;;;4963780;28;20215;-89
2023/03/19 14:20:05;;;;;;;11.07;4.77;;;;;;;;;;4963566;28;20195;-88
2023/03/19 14:23:15;;;;;;;31.80;12.13;;;;;;;;;;4952422;28;20210;-88
2023/03/19 14:26:24;;;;;;;9.50;4.17;;;;;;;;;;4952860;28;20540;-89
2023/03/19 14:29:32;;;;;;;15.17;7.73;;;;;;;;;;4963773;28;20513;-89
2023/03/19 14:32:40;;;;;;;8.97;4.43;;;;;;;;;;4963631;28;20537;-89
2023/03/19 14:35:48;;;;;;;7.77;4.23;;;;;;;;;;4960138;28;20182;-89
2023/03/19 14:38:58;;;;;;;4.43;3.40;;;;;;;;;;4969128;28;20187;-89
2023/03/19 14:42:06;;;;;;;1.77;1.57;;;;;;;;;;4951665;28;20183;-89
2023/03/19 14:45:41;;;;;;;2.90;1.90;;;;;;;;;;4952370;28;20210;-89
2023/03/19 14:49:08;;;;;;;2.43;1.57;;;;;;;;;;4974630;28;20178;-88
2023/03/19 14:52:33;;;;;;;3.23;1.50;;;;;;;;;;4974603;28;20178;-88
2023/03/19 14:55:37;;;;;;;2.90;1.80;;;;;;;;;;4952374;28;20179;-90
2023/03/19 14:58:49;;;;;;;2.17;1.70;;;;;;;;;;4951928;28;20226;-88
2023/03/19 15:01:54;;;;;;;4.33;1.90;;;;;;;;;;4952094;28;20525;-90
2023/03/19 15:04:58;;;;;;;2.87;1.83;;;;;;;;;;4963578;28;20218;-89
2023/03/19 15:08:08;;;;;;;3.90;1.83;;;;;;;;;;4969651;28;20194;-89
2023/03/19 15:11:29;;;;;;;5.13;1.87;;;;;;;;;;4967367;28;20190;-89
2023/03/19 15:15:09;;;;;;;2.97;1.53;;;;;;;;;;4961667;28;20218;-89
2023/03/19 15:18:15;;;;;;;2.87;2.00;;;;;;;;;;4957350;28;20592;-88
2023/03/19 15:21:19;;;;;;;3.17;2.10;;;;;;;;;;4963595;28;20179;-88
2023/03/19 15:24:23;;;;;;;2.30;1.87;;;;;;;;;;4962695;28;20217;-88
2023/03/19 15:27:27;;;;;;;4.83;1.97;;;;;;;;;;4963830;28;20178;-89
2023/03/19 15:30:31;;;;;;;2.67;1.70;;;;;;;;;;4953456;28;20183;-87
2023/03/19 15:33:38;;;;;;;5.30;2.30;;;;;;;;;;4963815;28;20691;-87
2023/03/19 15:36:42;;;;;;;3.60;2.00;;;;;;;;;;4942248;28;20187;-87
2023/03/19 15:39:50;;;;;;;3.13;2.00;;;;;;;;;;4975869;28;20187;-87
2023/03/19 15:42:59;;;;;;;3.23;2.00;;;;;;;;;;4953133;28;20183;-81
2023/03/19 15:46:04;;;;;;;3.43;1.90;;;;;;;;;;4954067;28;20179;-81
2023/03/19 15:50:14;;;;;;;2.40;1.90;;;;;;;;;;4977075;28;20183;-89
2023/03/19 15:54:11;;;;;;;4.37;2.43;;;;;;;;;;4989789;28;20222;-89
2023/03/19 15:58:46;;;;;;;2.70;1.93;;;;;;;;;;4959755;28;20589;-89
2023/03/19 16:02:33;;;;;;;3.80;2.23;;;;;;;;;;4942040;29;20195;-89
2023/03/19 16:06:53;;;;;;;3.60;1.90;;;;;;;;;;4952910;29;20203;-89
2023/03/19 16:10:48;;;;;;;4.47;2.03;;;;;;;;;;4948257;29;20708;-88
2023/03/19 16:14:50;;;;;;;2.73;1.60;;;;;;;;;;4952398;28;20223;-89
2023/03/19 22:49:15;;;;;;;5.50;5.00;;;;;;;;;;5027463;23;20423;-80
2023/03/19 22:52:19;;;;;;;5.30;4.80;;;;;;;;;;4992065;28;20182;-81
2023/03/19 22:55:24;;;;;;;8.63;5.47;;;;;;;;;;5002718;28;20201;-81
2023/03/19 22:58:28;;;;;;;8.07;5.27;;;;;;;;;;4985732;28;20233;-81
2023/03/19 23:01:45;;;;;;;6.73;6.03;;;;;;;;;;5021149;28;20185;-81
2023/03/19 23:04:48;;;;;;;7.10;5.97;;;;;;;;;;5011053;28;20181;-81
2023/03/19 23:07:53;;;;;;;8.33;5.80;;;;;;;;;;5022407;28;20184;-81
2023/03/19 23:10:58;;;;;;;6.20;5.60;;;;;;;;;;5022057;28;20185;-81
2023/03/19 23:14:02;;;;;;;7.53;5.27;;;;;;;;;;5022330;28;20177;-81
2023/03/19 23:17:16;;;;;;;8.60;6.10;;;;;;;;;;5010974;28;20185;-81
2023/03/19 23:20:21;;;;;;;11.20;6.10;;;;;;;;;;5034363;28;20224;-81
2023/03/19 23:23:26;;;;;;;6.70;6.00;;;;;;;;;;5022300;28;20181;-81
2023/03/19 23:26:33;;;;;;;6.73;5.70;;;;;;;;;;5010839;28;20185;-81
2023/03/19 23:29:42;;;;;;;8.37;6.10;;;;;;;;;;5034656;28;20212;-81
2023/03/19 23:32:48;;;;;;;6.13;5.40;;;;;;;;;;5034590;28;20192;-81
2023/03/19 23:35:55;;;;;;;7.87;5.70;;;;;;;;;;4999810;28;20177;-81
2023/03/19 23:39:00;;;;;;;7.57;6.60;;;;;;;;;;5022160;28;20426;-81
2023/03/19 23:42:05;;;;;;;9.00;7.10;;;;;;;;;;5022297;28;20192;-81
2023/03/19 23:45:26;;;;;;;8.03;6.63;;;;;;;;;;5022003;28;20190;-81
2023/03/19 23:48:34;;;;;;;8.87;7.00;;;;;;;;;;5021746;28;20232;-81
2023/03/19 23:51:40;;;;;;;10.43;7.17;;;;;;;;;;5010966;28;20185;-81
2023/03/19 23:54:44;;;;;;;7.40;6.43;;;;;;;;;;5021363;28;20549;-83
2023/03/19 23:57:49;;;;;;;9.80;7.30;;;;;;;;;;5021969;28;20201;-81
